createdAt,value
2018-12-23T00:01:28.181Z,2.70
2018-12-23T00:03:55.715Z,3.07
2018-12-23T00:06:23.325Z,2.87
2018-12-23T00:08:50.851Z,2.00
2018-12-23T00:11:18.409Z,2.17
2018-12-23T00:13:46.048Z,3.57
2018-12-23T00:16:13.539Z,2.23
2018-12-23T00:18:41.109Z,2.27
2018-12-23T00:21:08.657Z,3.60
2018-12-23T00:23:36.187Z,2.63
2018-12-23T00:26:03.750Z,2.90
2018-12-23T00:28:31.279Z,2.67
2018-12-23T00:30:58.822Z,4.07
2018-12-23T00:33:26.337Z,2.40
2018-12-23T00:35:53.914Z,2.53
2018-12-23T00:38:21.449Z,3.20
2018-12-23T00:40:48.994Z,2.87
2018-12-23T00:43:16.532Z,2.73
2018-12-23T00:45:44.258Z,3.37
2018-12-23T00:48:11.919Z,3.00
2018-12-23T00:50:39.467Z,3.17
2018-12-23T00:53:06.989Z,2.13
2018-12-23T00:55:34.541Z,2.73
2018-12-23T00:58:02.113Z,1.87
2018-12-23T01:00:29.962Z,2.97
2018-12-23T01:02:58.499Z,2.50
2018-12-23T01:05:28.905Z,3.23
2018-12-23T01:07:55.664Z,2.10
2018-12-23T01:10:23.239Z,2.70
2018-12-23T01:12:51.764Z,2.33
2018-12-23T01:15:19.368Z,3.50
2018-12-23T01:17:46.997Z,2.37
2018-12-23T01:20:14.631Z,2.70
2018-12-23T01:22:42.200Z,2.30
2018-12-23T01:25:09.754Z,2.17
2018-12-23T01:27:37.314Z,2.87
2018-12-23T01:30:05.493Z,2.50
2018-12-23T01:32:33.245Z,1.93
2018-12-23T01:35:00.836Z,2.90
2018-12-23T01:37:28.374Z,2.77
2018-12-23T01:39:55.926Z,2.10
2018-12-23T01:42:23.434Z,2.40
2018-12-23T01:44:51.137Z,2.37
2018-12-23T01:47:18.700Z,1.70
2018-12-23T01:49:46.341Z,1.93
2018-12-23T01:52:13.900Z,2.40
2018-12-23T01:54:41.433Z,2.30
2018-12-23T01:57:08.974Z,3.03
2018-12-23T01:59:36.536Z,2.23
2018-12-23T02:02:04.312Z,2.47
2018-12-23T02:04:31.836Z,2.87
2018-12-23T02:06:59.460Z,1.63
2018-12-23T02:09:26.966Z,3.10
2018-12-23T02:11:54.576Z,3.00
2018-12-23T02:14:22.177Z,2.23
2018-12-23T02:16:49.741Z,2.30
2018-12-23T02:19:17.299Z,1.90
2018-12-23T02:21:44.859Z,2.70
2018-12-23T02:24:12.426Z,2.47
2018-12-23T02:26:39.974Z,2.60
2018-12-23T02:29:07.534Z,1.97
2018-12-23T02:31:35.115Z,2.70
2018-12-23T02:34:02.780Z,2.53
2018-12-23T02:36:30.304Z,3.37
2018-12-23T02:38:57.848Z,1.93
2018-12-23T02:41:31.554Z,2.90
2018-12-23T02:43:54.965Z,2.70
2018-12-23T02:46:22.541Z,2.30
2018-12-23T02:48:50.162Z,2.57
2018-12-23T02:51:17.703Z,2.30
2018-12-23T02:53:45.230Z,1.90
2018-12-23T02:56:12.750Z,2.73
2018-12-23T02:58:40.351Z,2.50
2018-12-23T03:01:07.892Z,3.03
2018-12-23T03:03:35.433Z,3.47
2018-12-23T03:06:06.096Z,3.10
2018-12-23T03:08:32.630Z,3.57
2018-12-23T03:11:00.196Z,2.37
2018-12-23T03:13:27.807Z,2.23
2018-12-23T03:15:55.516Z,2.77
2018-12-23T03:18:23.153Z,3.13
2018-12-23T03:20:50.737Z,2.83
2018-12-23T03:23:18.324Z,3.57
2018-12-23T03:25:45.867Z,3.87
2018-12-23T03:28:13.403Z,2.53
2018-12-23T03:30:40.950Z,3.10
2018-12-23T03:33:08.508Z,3.23
2018-12-23T03:35:36.087Z,3.27
2018-12-23T03:38:03.689Z,3.57
2018-12-23T03:40:31.285Z,4.33
2018-12-23T03:42:58.920Z,3.47
2018-12-23T03:45:26.441Z,3.10
2018-12-23T03:47:53.999Z,3.40
2018-12-23T03:50:21.553Z,3.37
2018-12-23T03:52:49.109Z,3.23
2018-12-23T03:55:16.659Z,3.67
2018-12-23T03:57:44.185Z,2.23
2018-12-23T04:00:11.703Z,3.30
2018-12-23T04:02:39.297Z,4.00
2018-12-23T04:05:06.844Z,3.70
2018-12-23T04:07:34.419Z,3.70
2018-12-23T04:10:01.993Z,2.57
2018-12-23T04:12:29.548Z,3.47
2018-12-23T04:14:57.079Z,3.17
2018-12-23T04:17:24.759Z,4.57
2018-12-23T04:19:52.275Z,3.87
2018-12-23T04:22:19.838Z,3.70
2018-12-23T04:24:47.401Z,3.50
2018-12-23T04:27:14.945Z,4.40
2018-12-23T04:29:42.526Z,4.03
2018-12-23T04:32:10.076Z,3.83
2018-12-23T04:34:37.618Z,3.13
2018-12-23T04:37:05.189Z,3.77
2018-12-23T04:39:32.718Z,3.70
2018-12-23T04:42:00.269Z,4.13
2018-12-23T04:44:27.969Z,3.60
2018-12-23T04:46:55.578Z,5.20
2018-12-23T04:49:23.100Z,3.47
2018-12-23T04:51:50.826Z,4.87
2018-12-23T04:54:18.333Z,3.50
2018-12-23T04:56:45.886Z,3.53
2018-12-23T04:59:13.416Z,3.47
2018-12-23T05:01:40.986Z,4.37
2018-12-23T05:04:08.642Z,4.87
2018-12-23T05:06:43.342Z,3.70
2018-12-23T05:09:06.203Z,4.93
2018-12-23T05:11:33.786Z,4.13
2018-12-23T05:14:01.323Z,4.20
2018-12-23T05:16:28.866Z,4.20
2018-12-23T05:18:56.436Z,3.43
2018-12-23T05:21:24.028Z,3.47
2018-12-23T05:23:51.519Z,3.90
2018-12-23T05:26:19.076Z,3.43
2018-12-23T05:28:46.619Z,4.63
2018-12-23T05:31:14.147Z,3.97
2018-12-23T05:33:41.688Z,4.27
2018-12-23T05:36:09.260Z,4.00
2018-12-23T05:38:36.785Z,4.03
2018-12-23T05:41:04.324Z,3.43
2018-12-23T05:43:31.881Z,3.10
2018-12-23T05:45:59.443Z,3.70
2018-12-23T05:48:27.012Z,3.43
2018-12-23T05:50:54.576Z,3.50
2018-12-23T05:53:22.098Z,3.80
2018-12-23T05:55:48.593Z,2.87
2018-12-23T05:58:16.227Z,2.77
2018-12-23T06:00:43.808Z,3.07
2018-12-23T06:03:11.386Z,4.17
2018-12-23T06:05:39.539Z,3.60
2018-12-23T06:08:07.045Z,4.17
2018-12-23T06:10:34.593Z,3.10
2018-12-23T06:13:02.132Z,4.00
2018-12-23T06:15:29.706Z,4.20
2018-12-23T06:17:57.261Z,3.63
2018-12-23T06:20:24.808Z,4.00
2018-12-23T06:22:52.336Z,3.93
2018-12-23T06:25:19.938Z,5.13
2018-12-23T06:27:47.481Z,4.80
2018-12-23T06:30:14.993Z,5.87
2018-12-23T06:32:42.528Z,5.47
2018-12-23T06:35:10.088Z,6.90
2018-12-23T06:37:37.599Z,5.23
2018-12-23T06:40:05.409Z,5.37
2018-12-23T06:42:32.967Z,4.80
2018-12-23T06:45:00.506Z,5.93
2018-12-23T06:47:28.079Z,7.63
2018-12-23T06:49:55.636Z,6.17
2018-12-23T06:52:23.158Z,6.40
2018-12-23T06:54:50.825Z,5.83
2018-12-23T06:57:18.438Z,4.83
2018-12-23T06:59:45.983Z,5.30
2018-12-23T07:02:13.512Z,4.67
2018-12-23T07:04:41.112Z,5.83
2018-12-23T07:07:08.690Z,4.13
2018-12-23T07:09:36.231Z,4.90
2018-12-23T07:12:03.970Z,4.63
2018-12-23T07:14:31.622Z,3.87
2018-12-23T07:16:59.209Z,4.80
2018-12-23T07:19:26.821Z,4.10
2018-12-23T07:21:54.409Z,5.17
2018-12-23T07:24:22.161Z,5.10
2018-12-23T07:26:49.736Z,4.70
2018-12-23T07:29:17.344Z,4.33
2018-12-23T07:31:45.012Z,4.90
2018-12-23T07:34:12.625Z,4.27
2018-12-23T07:36:40.255Z,3.90
2018-12-23T07:39:07.845Z,4.23
2018-12-23T07:41:35.584Z,3.63
2018-12-23T07:44:03.339Z,3.97
2018-12-23T07:46:31.983Z,3.80
2018-12-23T07:48:59.523Z,4.27
2018-12-23T07:51:27.115Z,3.43
2018-12-23T07:53:54.742Z,4.00
2018-12-23T07:56:22.288Z,4.77
2018-12-23T07:58:49.809Z,3.03
2018-12-23T08:01:17.350Z,4.10
2018-12-23T08:03:44.982Z,5.10
2018-12-23T08:06:12.579Z,3.80
2018-12-23T08:08:40.189Z,5.43
2018-12-23T08:11:07.928Z,5.70
2018-12-23T08:13:35.488Z,4.30
2018-12-23T08:16:07.663Z,3.73
2018-12-23T08:18:36.382Z,4.63
2018-12-23T08:21:03.876Z,4.90
2018-12-23T08:23:31.497Z,4.93
2018-12-23T08:25:59.084Z,4.57
2018-12-23T08:28:26.706Z,4.80
2018-12-23T08:30:54.228Z,5.13
2018-12-23T08:33:21.759Z,4.80
2018-12-23T08:35:49.330Z,5.27
2018-12-23T08:38:16.918Z,4.53
2018-12-23T08:40:44.446Z,4.87
2018-12-23T08:43:12.366Z,5.83
2018-12-23T08:45:40.105Z,5.50
2018-12-23T08:48:07.733Z,4.40
2018-12-23T08:50:35.391Z,5.73
2018-12-23T08:53:03.030Z,6.17
2018-12-23T08:55:30.666Z,5.77
2018-12-23T08:57:58.319Z,4.43
2018-12-23T09:00:26.365Z,5.20
2018-12-23T09:02:53.945Z,4.70
2018-12-23T09:05:21.589Z,6.37
2018-12-23T09:07:52.969Z,5.30
2018-12-23T09:10:18.748Z,4.53
2018-12-23T09:12:46.308Z,4.80
2018-12-23T09:15:13.837Z,4.73
2018-12-23T09:17:41.405Z,4.60
2018-12-23T09:20:09.079Z,3.77
2018-12-23T09:22:36.925Z,5.33
2018-12-23T09:25:04.631Z,3.80
2018-12-23T09:27:32.203Z,4.33
2018-12-23T09:29:59.795Z,4.43
2018-12-23T09:32:27.729Z,4.73
2018-12-23T09:34:55.355Z,4.13
2018-12-23T09:37:23.004Z,4.07
2018-12-23T09:39:50.751Z,4.87
2018-12-23T09:42:18.479Z,4.50
2018-12-23T09:44:46.129Z,3.43
2018-12-23T09:47:13.769Z,6.13
2018-12-23T09:49:52.226Z,5.87
2018-12-23T09:52:20.043Z,5.07
2018-12-23T09:54:47.622Z,3.70
2018-12-23T09:57:15.234Z,3.83
2018-12-23T09:59:42.799Z,4.53
2018-12-23T10:02:10.392Z,3.97
2018-12-23T10:04:37.973Z,3.27
2018-12-23T10:07:05.641Z,3.57
2018-12-23T10:09:33.201Z,3.10
2018-12-23T10:12:00.753Z,2.33
2018-12-23T10:15:03.119Z,3.07
2018-12-23T10:17:30.666Z,2.77
2018-12-23T10:23:29.701Z,3.23
2018-12-23T10:25:57.234Z,2.90
2018-12-23T10:28:26.135Z,2.30
2018-12-23T10:30:53.764Z,2.83
2018-12-23T10:33:21.388Z,2.83
2018-12-23T10:35:48.903Z,2.47
2018-12-23T10:38:18.432Z,2.30
2018-12-23T10:40:46.121Z,2.70
2018-12-23T10:43:13.725Z,3.07
2018-12-23T10:45:41.289Z,2.00
2018-12-23T10:48:08.931Z,2.53
2018-12-23T10:50:36.596Z,2.63
2018-12-23T10:53:04.220Z,2.60
2018-12-23T10:55:31.811Z,2.47
2018-12-23T10:57:59.388Z,2.13
2018-12-23T11:00:26.958Z,2.50
2018-12-23T11:02:54.546Z,2.17
2018-12-23T11:05:22.087Z,2.50
2018-12-23T11:07:49.681Z,1.90
2018-12-23T11:10:17.283Z,2.80
2018-12-23T11:12:44.873Z,2.10
2018-12-23T11:15:19.886Z,2.40
2018-12-23T11:17:47.408Z,2.10
2018-12-23T11:20:14.938Z,1.33
2018-12-23T11:22:42.477Z,1.63
2018-12-23T11:25:10.067Z,2.53
2018-12-23T11:28:01.609Z,1.97
2018-12-23T11:30:29.244Z,1.90
2018-12-23T11:32:56.964Z,1.87
2018-12-23T11:35:24.517Z,2.33
2018-12-23T11:37:52.049Z,2.23
2018-12-23T11:47:31.644Z,2.23
2018-12-23T11:50:07.320Z,2.00
2018-12-23T11:52:42.764Z,2.00
2018-12-23T11:55:10.341Z,1.70
2018-12-23T11:57:38.003Z,2.60
2018-12-23T12:00:16.377Z,2.27
2018-12-23T12:02:44.011Z,2.57
2018-12-23T12:05:11.607Z,1.90
2018-12-23T12:07:39.224Z,2.37
2018-12-23T12:10:06.933Z,2.53
2018-12-23T12:12:34.934Z,2.53
2018-12-23T12:15:02.628Z,2.20
2018-12-23T12:17:37.596Z,2.63
2018-12-23T12:20:13.012Z,4.60
2018-12-23T12:22:41.356Z,3.37
2018-12-23T12:25:21.628Z,2.93
2018-12-23T12:27:49.242Z,2.40
2018-12-23T12:30:16.826Z,1.80
2018-12-23T12:32:44.432Z,2.20
2018-12-23T12:35:12.019Z,2.10
2018-12-23T12:37:39.610Z,2.07
2018-12-23T12:40:07.341Z,1.73
2018-12-23T12:42:35.382Z,1.63
2018-12-23T12:45:29.114Z,2.53
2018-12-23T12:47:56.722Z,2.10
2018-12-23T12:50:24.439Z,2.97
2018-12-23T12:52:52.627Z,2.33
2018-12-23T12:55:31.117Z,1.90
2018-12-23T12:58:06.761Z,2.10
2018-12-23T13:01:24.985Z,1.67
2018-12-23T13:03:52.848Z,2.30
2018-12-23T13:06:20.779Z,1.63
2018-12-23T13:08:48.697Z,1.30
2018-12-23T13:11:16.628Z,1.83
2018-12-23T13:13:44.543Z,1.63
2018-12-23T13:16:12.447Z,1.20
2018-12-23T13:18:40.307Z,1.97
2018-12-23T13:21:08.150Z,1.47
2018-12-23T13:23:35.951Z,1.43
2018-12-23T13:26:03.863Z,1.40
2018-12-23T13:28:31.753Z,1.43
2018-12-23T13:30:59.629Z,1.73
2018-12-23T13:33:27.587Z,2.13
2018-12-23T13:35:55.396Z,1.90
2018-12-23T13:38:23.327Z,1.83
2018-12-23T13:41:25.781Z,1.97
2018-12-23T13:44:25.357Z,1.67
2018-12-23T13:47:16.661Z,1.43
2018-12-23T13:50:39.427Z,1.73
2018-12-23T13:53:23.658Z,1.90
2018-12-23T13:56:29.739Z,1.83
2018-12-23T13:59:51.277Z,1.70
2018-12-23T14:03:03.897Z,1.70
2018-12-23T14:06:05.202Z,1.90
2018-12-23T14:09:07.150Z,2.20
2018-12-23T14:12:00.445Z,2.17
2018-12-23T14:14:28.301Z,2.43
2018-12-23T14:16:56.249Z,2.20
2018-12-23T14:19:24.998Z,2.43
2018-12-23T14:21:52.914Z,2.30
2018-12-23T14:24:21.228Z,2.10
2018-12-23T14:26:49.027Z,1.93
2018-12-23T14:29:16.998Z,2.00
2018-12-23T14:31:46.012Z,2.30
2018-12-23T14:34:13.971Z,2.70
2018-12-23T14:36:41.870Z,2.10
2018-12-23T14:39:10.124Z,2.43
2018-12-23T14:41:38.042Z,2.67
2018-12-23T14:44:05.969Z,2.80
2018-12-23T14:46:33.818Z,2.70
2018-12-23T14:49:01.726Z,2.80
2018-12-23T14:51:29.644Z,3.63
2018-12-23T14:53:57.450Z,3.27
2018-12-23T14:56:25.370Z,3.00
2018-12-23T14:58:53.256Z,3.03
2018-12-23T15:01:21.684Z,3.10
2018-12-23T15:03:49.571Z,3.87
2018-12-23T15:06:17.522Z,3.70
2018-12-23T15:08:45.534Z,3.07
2018-12-23T15:11:13.406Z,3.50
2018-12-23T15:13:41.328Z,3.37
2018-12-23T15:16:09.335Z,4.03
2018-12-23T15:18:39.319Z,3.50
2018-12-23T15:21:07.255Z,3.70
2018-12-23T15:23:35.084Z,3.60
2018-12-23T15:26:02.963Z,3.20
2018-12-23T15:28:30.894Z,3.63
2018-12-23T15:30:58.878Z,3.27
2018-12-23T15:33:26.835Z,3.33
2018-12-23T15:35:54.782Z,3.10
2018-12-23T15:38:22.699Z,2.90
2018-12-23T15:40:50.722Z,3.37
2018-12-23T15:43:18.630Z,3.17
2018-12-23T15:45:46.544Z,3.10
2018-12-23T15:48:14.343Z,2.57
2018-12-23T15:50:42.167Z,3.30
2018-12-23T15:53:10.154Z,3.23
2018-12-23T15:55:37.970Z,2.77
2018-12-23T15:58:05.850Z,2.47
2018-12-23T16:00:33.714Z,3.07
2018-12-23T16:03:01.539Z,2.37
2018-12-23T16:05:29.435Z,2.63
2018-12-23T16:07:57.290Z,3.10
2018-12-23T16:10:25.109Z,3.00
2018-12-23T16:12:53.066Z,3.00
2018-12-23T16:15:20.910Z,3.20
2018-12-23T16:17:48.812Z,3.20
2018-12-23T16:20:17.002Z,2.83
2018-12-23T16:22:45.129Z,2.57
2018-12-23T16:25:13.189Z,3.00
2018-12-23T16:27:41.153Z,2.93
2018-12-23T16:30:10.060Z,3.00
2018-12-23T16:32:37.977Z,2.47
2018-12-23T16:35:05.831Z,2.90
2018-12-23T16:37:33.772Z,2.60
2018-12-23T16:40:01.676Z,2.67
2018-12-23T16:42:29.644Z,2.73
2018-12-23T16:44:57.514Z,2.70
2018-12-23T16:47:25.484Z,2.67
2018-12-23T16:49:53.464Z,3.00
2018-12-23T16:52:21.416Z,2.93
2018-12-23T16:54:49.258Z,3.00
2018-12-23T16:57:17.088Z,2.33
2018-12-23T16:59:44.995Z,2.30
2018-12-23T17:02:12.929Z,2.93
2018-12-23T17:04:40.850Z,2.63
2018-12-23T17:07:08.823Z,2.10
2018-12-23T17:09:36.767Z,2.80
2018-12-23T17:12:04.774Z,3.13
2018-12-23T17:14:32.655Z,3.03
2018-12-23T17:17:00.602Z,3.60
2018-12-23T17:19:28.498Z,3.07
2018-12-23T17:21:56.460Z,3.40
2018-12-23T17:24:24.376Z,3.17
2018-12-23T17:26:52.288Z,3.63
2018-12-23T17:29:20.295Z,3.90
2018-12-23T17:31:48.245Z,3.20
2018-12-23T17:34:16.117Z,4.30
2018-12-23T17:36:44.093Z,3.83
2018-12-23T17:39:12.049Z,3.80
2018-12-23T17:41:39.853Z,3.93
2018-12-23T17:44:07.721Z,3.83
2018-12-23T17:46:35.797Z,3.80
2018-12-23T17:49:05.703Z,3.77
2018-12-23T17:51:33.601Z,4.10
2018-12-23T17:54:01.556Z,3.73
2018-12-23T17:56:29.487Z,4.33
2018-12-23T17:58:57.302Z,3.80
2018-12-23T18:01:25.233Z,4.20
2018-12-23T18:03:53.189Z,3.10
2018-12-23T18:06:21.157Z,3.47
2018-12-23T18:08:49.111Z,3.77
2018-12-23T18:11:17.044Z,4.20
2018-12-23T18:13:45.057Z,3.97
2018-12-23T18:16:12.982Z,3.53
2018-12-23T18:18:40.909Z,3.13
2018-12-23T18:21:08.737Z,3.17
2018-12-23T18:23:36.671Z,3.40
2018-12-23T18:26:04.657Z,4.17
2018-12-23T18:28:32.611Z,3.70
2018-12-23T18:31:00.608Z,3.07
2018-12-23T18:33:28.516Z,3.53
2018-12-23T18:35:56.453Z,3.63
2018-12-23T18:38:24.370Z,3.30
2018-12-23T18:40:52.294Z,3.40
2018-12-23T18:43:20.215Z,3.30
2018-12-23T18:45:48.071Z,3.17
2018-12-23T18:48:16.131Z,3.30
2018-12-23T18:50:45.466Z,4.07
2018-12-23T18:53:13.371Z,4.10
2018-12-23T18:55:41.327Z,3.70
2018-12-23T18:58:09.318Z,3.20
2018-12-23T19:00:37.866Z,3.40
2018-12-23T19:03:05.822Z,3.60
2018-12-23T19:05:33.734Z,3.63
2018-12-23T19:08:08.168Z,3.10
2018-12-23T19:11:29.590Z,3.23
2018-12-23T19:14:32.516Z,3.07
2018-12-23T19:17:32.374Z,2.87
2018-12-23T19:20:43.441Z,2.50
2018-12-23T19:24:02.869Z,2.73
2018-12-23T19:27:03.910Z,2.70
2018-12-23T19:30:08.259Z,3.53
2018-12-23T19:33:20.847Z,3.07
2018-12-23T19:36:27.518Z,3.90
2018-12-23T19:39:25.962Z,2.87
2018-12-23T19:43:05.740Z,2.80
2018-12-23T19:46:27.395Z,2.60
2018-12-23T19:49:58.245Z,2.93
2018-12-23T19:53:13.889Z,3.10
2018-12-23T19:56:28.350Z,2.50
2018-12-23T19:59:44.156Z,2.27
2018-12-23T20:03:18.118Z,2.30
2018-12-23T20:06:33.872Z,2.60
2018-12-23T20:09:28.771Z,2.23
2018-12-23T20:12:26.544Z,2.33
2018-12-23T20:15:03.775Z,3.10
2018-12-23T20:18:31.574Z,2.50
2018-12-23T20:21:23.142Z,2.33
2018-12-23T20:24:28.738Z,3.57
2018-12-23T20:27:29.828Z,3.37
2018-12-23T20:30:42.460Z,1.30
2018-12-23T20:33:41.121Z,0.87
2018-12-23T20:36:49.494Z,0.67
2018-12-23T20:40:11.261Z,0.90
2018-12-23T20:43:22.392Z,1.33
2018-12-23T20:46:23.669Z,0.73
2018-12-23T20:49:18.748Z,1.03
2018-12-23T20:52:33.294Z,0.80
2018-12-23T20:55:40.004Z,0.60
2018-12-23T20:58:55.803Z,1.03
2018-12-23T21:02:08.468Z,1.53
2018-12-23T21:05:30.898Z,1.20
2018-12-23T21:08:40.381Z,1.53
2018-12-23T21:11:39.004Z,1.30
2018-12-23T21:14:39.985Z,1.37
2018-12-23T21:17:37.960Z,1.90
2018-12-23T21:20:38.720Z,2.47
2018-12-23T21:23:44.824Z,1.73
2018-12-23T21:26:49.155Z,2.17
2018-12-23T21:29:38.452Z,2.57
2018-12-23T21:32:47.764Z,2.40
2018-12-23T21:35:44.168Z,4.63
2018-12-23T21:38:52.714Z,5.03
2018-12-23T21:41:44.120Z,3.90
2018-12-23T21:44:46.871Z,3.53
2018-12-23T21:47:46.359Z,4.27
2018-12-23T21:50:47.942Z,4.47
2018-12-23T21:53:45.183Z,3.70
2018-12-23T21:56:49.864Z,2.23
2018-12-23T21:59:43.164Z,1.93
2018-12-23T22:02:40.659Z,1.57
2018-12-23T22:05:59.076Z,1.60
2018-12-23T22:08:53.009Z,1.23
2018-12-23T22:11:37.235Z,1.50
2018-12-23T22:14:05.150Z,1.57
2018-12-23T22:16:32.965Z,1.43
2018-12-23T22:19:00.919Z,1.80
2018-12-23T22:21:28.877Z,2.00
2018-12-23T22:23:56.694Z,2.10
2018-12-23T22:26:24.596Z,2.30
2018-12-23T22:28:52.428Z,2.40
2018-12-23T22:31:20.330Z,3.00
2018-12-23T22:33:48.261Z,2.70
2018-12-23T22:36:16.166Z,2.10
2018-12-23T22:38:44.041Z,2.80
2018-12-23T22:41:14.820Z,2.53
2018-12-23T22:43:42.701Z,3.43
2018-12-23T22:46:10.600Z,2.73
2018-12-23T22:48:38.520Z,2.90
2018-12-23T22:51:06.412Z,3.40
2018-12-23T22:53:34.319Z,2.70
2018-12-23T22:56:02.131Z,3.40
2018-12-23T22:58:29.953Z,2.97
2018-12-23T23:00:59.146Z,4.13
2018-12-23T23:03:26.948Z,3.30
2018-12-23T23:05:54.764Z,4.23
2018-12-23T23:08:22.650Z,4.03
2018-12-23T23:10:50.567Z,3.90
2018-12-23T23:13:18.985Z,4.10
2018-12-23T23:15:46.996Z,3.97
2018-12-23T23:18:14.877Z,4.03
2018-12-23T23:20:44.348Z,3.87
2018-12-23T23:23:12.256Z,4.67
2018-12-23T23:25:40.102Z,4.63
2018-12-23T23:28:08.010Z,4.50
2018-12-23T23:30:35.900Z,3.93
2018-12-23T23:33:03.733Z,5.00
2018-12-23T23:35:31.658Z,4.53
2018-12-23T23:37:59.461Z,4.87
2018-12-23T23:40:27.359Z,5.23
2018-12-23T23:42:55.287Z,5.03
2018-12-23T23:45:23.174Z,5.43
2018-12-23T23:47:51.098Z,4.57
2018-12-23T23:50:18.978Z,3.60
2018-12-23T23:52:46.828Z,3.30
2018-12-23T23:55:14.720Z,3.47
2018-12-23T23:57:42.541Z,2.87
